Time,TemperatureF,DewpointF,PressureIn,WindDirection,WindDirectionDegrees,WindSpeedMPH,WindSpeedGustMPH,Humidity,HourlyPrecipIn,Conditions,Clouds,dailyrainin,SoftwareType,DateUTC
2013-03-31 00:05:00,31.9,22.0,30.14,NNE,22,0.0,1.0,68,0.00,,,0.00,weatherlink.com 1.10,2013-03-31 04:05:00,
2013-03-31 00:22:00,30.9,23.0,30.15,NNE,22,0.0,0.0,72,0.00,,,0.00,weatherlink.com 1.10,2013-03-31 04:22:00,
2013-03-31 00:35:00,29.9,22.0,30.14,NNE,22,0.0,0.0,73,0.00,,,0.00,weatherlink.com 1.10,2013-03-31 04:35:00,
2013-03-31 00:52:00,29.0,22.0,30.14,NNE,22,0.0,0.0,76,0.00,,,0.00,weatherlink.com 1.10,2013-03-31 04:52:00,
2013-03-31 01:06:00,28.4,23.0,30.14,NNE,22,0.0,0.0,79,0.00,,,0.00,weatherlink.com 1.10,2013-03-31 05:06:00,
2013-03-31 01:21:00,28.0,23.0,30.14,NNE,22,0.0,0.0,80,0.00,,,0.00,weatherlink.com 1.10,2013-03-31 05:21:00,
2013-03-31 01:36:00,27.9,23.0,30.14,NNE,22,0.0,0.0,81,0.00,,,0.00,weatherlink.com 1.10,2013-03-31 05:36:00,
2013-03-31 01:51:00,27.7,22.0,30.13,NNE,22,0.0,0.0,80,0.00,,,0.00,weatherlink.com 1.10,2013-03-31 05:51:00,
2013-03-31 02:21:00,27.3,22.0,30.13,NNE,22,0.0,0.0,80,0.00,,,0.00,weatherlink.com 1.10,2013-03-31 06:21:00,
2013-03-31 02:36:00,27.0,22.0,30.14,NNE,22,0.0,0.0,81,0.00,,,0.00,weatherlink.com 1.10,2013-03-31 06:36:00,
2013-03-31 02:51:00,27.1,22.0,30.13,NNE,22,0.0,0.0,81,0.00,,,0.00,weatherlink.com 1.10,2013-03-31 06:51:00,
2013-03-31 03:06:00,26.9,22.0,30.14,NNE,22,0.0,0.0,82,0.00,,,0.00,weatherlink.com 1.10,2013-03-31 07:06:00,
2013-03-31 03:21:00,26.7,22.0,30.14,NNE,22,0.0,0.0,82,0.00,,,0.00,weatherlink.com 1.10,2013-03-31 07:21:00,
2013-03-31 03:36:00,26.5,21.0,30.13,NNE,22,0.0,0.0,81,0.00,,,0.00,weatherlink.com 1.10,2013-03-31 07:36:00,
2013-03-31 03:51:00,26.3,22.0,30.13,NNE,22,0.0,0.0,82,0.00,,,0.00,weatherlink.com 1.10,2013-03-31 07:51:00,
2013-03-31 04:06:00,25.9,21.0,30.12,NNE,22,0.0,0.0,83,0.00,,,0.00,weatherlink.com 1.10,2013-03-31 08:06:00,
2013-03-31 04:21:00,25.7,22.0,30.12,NNE,22,0.0,0.0,84,0.00,,,0.00,weatherlink.com 1.10,2013-03-31 08:21:00,
2013-03-31 04:36:00,25.5,22.0,30.12,NNE,22,1.0,1.0,85,0.00,,,0.00,weatherlink.com 1.10,2013-03-31 08:36:00,
2013-03-31 04:51:00,25.4,21.0,30.11,NNE,22,0.0,0.0,84,0.00,,,0.00,weatherlink.com 1.10,2013-03-31 08:51:00,
2013-03-31 05:07:00,25.3,21.0,30.11,NNE,22,0.0,0.0,84,0.00,,,0.00,weatherlink.com 1.10,2013-03-31 09:07:00,
2013-03-31 05:21:00,25.3,21.0,30.10,NNE,22,0.0,0.0,85,0.00,,,0.00,weatherlink.com 1.10,2013-03-31 09:21:00,
2013-03-31 05:37:00,25.1,21.0,30.10,NNE,22,0.0,0.0,85,0.00,,,0.00,weatherlink.com 1.10,2013-03-31 09:37:00,
2013-03-31 05:51:00,25.0,21.0,30.10,NNE,22,0.0,0.0,85,0.00,,,0.00,weatherlink.com 1.10,2013-03-31 09:51:00,
2013-03-31 06:06:00,24.8,21.0,30.10,NNE,27,0.0,1.0,86,0.00,,,0.00,weatherlink.com 1.10,2013-03-31 10:06:00,
2013-03-31 06:37:00,24.9,21.0,30.10,NE,48,0.0,0.0,86,0.00,,,0.00,weatherlink.com 1.10,2013-03-31 10:37:00,
2013-03-31 06:52:00,24.7,21.0,30.09,NE,48,0.0,2.0,87,0.00,,,0.00,weatherlink.com 1.10,2013-03-31 10:52:00,
2013-03-31 07:07:00,25.2,22.0,30.09,NNE,16,1.0,2.0,88,0.00,,,0.00,weatherlink.com 1.10,2013-03-31 11:07:00,
2013-03-31 07:22:00,25.5,23.0,30.09,NW,324,0.0,2.0,89,0.00,,,0.00,weatherlink.com 1.10,2013-03-31 11:22:00,
2013-03-31 07:37:00,26.4,24.0,30.09,NW,324,0.0,0.0,89,0.00,,,0.00,weatherlink.com 1.10,2013-03-31 11:37:00,
2013-03-31 07:52:00,27.6,25.0,30.09,NW,324,0.0,0.0,88,0.00,,,0.00,weatherlink.com 1.10,2013-03-31 11:52:00,
2013-03-31 08:07:00,28.8,25.0,30.09,NW,324,0.0,0.0,86,0.00,,,0.00,weatherlink.com 1.10,2013-03-31 12:07:00,
2013-03-31 08:22:00,29.7,25.0,30.09,NW,324,0.0,0.0,82,0.00,,,0.00,weatherlink.com 1.10,2013-03-31 12:22:00,
2013-03-31 08:37:00,31.6,26.0,30.08,NW,324,0.0,0.0,79,0.00,,,0.00,weatherlink.com 1.10,2013-03-31 12:37:00,
2013-03-31 08:52:00,33.6,27.0,30.07,NW,324,0.0,0.0,78,0.00,,,0.00,weatherlink.com 1.10,2013-03-31 12:52:00,
2013-03-31 09:07:00,35.6,28.0,30.07,NW,324,0.0,0.0,74,0.00,,,0.00,weatherlink.com 1.10,2013-03-31 13:07:00,
2013-03-31 09:22:00,38.0,27.0,30.05,South,188,2.0,4.0,65,0.00,,,0.00,weatherlink.com 1.10,2013-03-31 13:22:00,
2013-03-31 09:37:00,39.6,28.0,30.05,SSW,204,0.0,2.0,64,0.00,,,0.00,weatherlink.com 1.10,2013-03-31 13:37:00,
2013-03-31 09:52:00,42.3,27.0,30.05,SE,128,2.0,8.0,56,0.00,,,0.00,weatherlink.com 1.10,2013-03-31 13:52:00,
2013-03-31 10:07:00,45.3,27.0,30.04,SSE,154,2.0,6.0,50,0.00,,,0.00,weatherlink.com 1.10,2013-03-31 14:07:00,
2013-03-31 10:22:00,47.1,28.0,30.04,ESE,119,2.0,8.0,47,0.00,,,0.00,weatherlink.com 1.10,2013-03-31 14:22:00,
2013-03-31 10:37:00,48.4,28.0,30.04,SSE,166,4.0,8.0,45,0.00,,,0.00,weatherlink.com 1.10,2013-03-31 14:37:00,
2013-03-31 10:52:00,49.1,27.0,30.03,ESE,117,0.0,7.0,43,0.00,,,0.00,weatherlink.com 1.10,2013-03-31 14:52:00,
2013-03-31 11:07:00,48.3,28.0,30.03,ESE,113,0.0,9.0,45,0.00,,,0.00,weatherlink.com 1.10,2013-03-31 15:07:00,
2013-03-31 11:22:00,47.7,28.0,30.03,SE,133,1.0,9.0,46,0.00,,,0.00,weatherlink.com 1.10,2013-03-31 15:22:00,
2013-03-31 11:52:00,47.4,27.0,30.01,SE,132,5.0,7.0,46,0.00,,,0.00,weatherlink.com 1.10,2013-03-31 15:52:00,
2013-03-31 12:07:00,49.2,28.0,30.00,SE,144,1.0,8.0,44,0.00,,,0.00,weatherlink.com 1.10,2013-03-31 16:07:00,
2013-03-31 12:22:00,50.2,28.0,30.00,South,180,2.0,11.0,42,0.00,,,0.00,weatherlink.com 1.10,2013-03-31 16:22:00,
2013-03-31 12:37:00,50.1,28.0,29.98,South,188,9.0,12.0,43,0.00,,,0.00,weatherlink.com 1.10,2013-03-31 16:37:00,
2013-03-31 12:53:00,50.0,28.0,29.98,South,180,3.0,11.0,43,0.00,,,0.00,weatherlink.com 1.10,2013-03-31 16:53:00,
2013-03-31 13:08:00,50.5,29.0,29.97,SSE,147,2.0,11.0,43,0.00,,,0.00,weatherlink.com 1.10,2013-03-31 17:08:00,
2013-03-31 13:23:00,51.0,28.0,29.97,SE,125,5.0,14.0,42,0.00,,,0.00,weatherlink.com 1.10,2013-03-31 17:23:00,
2013-03-31 13:38:00,51.4,29.0,29.96,SE,141,1.0,11.0,43,0.00,,,0.00,weatherlink.com 1.10,2013-03-31 17:38:00,
2013-03-31 13:53:00,51.8,29.0,29.94,SE,139,2.0,11.0,42,0.00,,,0.00,weatherlink.com 1.10,2013-03-31 17:53:00,
2013-03-31 14:08:00,51.6,29.0,29.93,South,174,3.0,11.0,42,0.00,,,0.00,weatherlink.com 1.10,2013-03-31 18:08:00,
2013-03-31 14:23:00,51.5,29.0,29.93,ESE,107,1.0,7.0,42,0.00,,,0.00,weatherlink.com 1.10,2013-03-31 18:23:00,
2013-03-31 14:38:00,51.6,29.0,29.92,SSE,148,4.0,11.0,42,0.00,,,0.00,weatherlink.com 1.10,2013-03-31 18:38:00,
2013-03-31 14:53:00,52.1,29.0,29.90,South,170,2.0,9.0,42,0.00,,,0.00,weatherlink.com 1.10,2013-03-31 18:53:00,
2013-03-31 15:08:00,52.8,29.0,29.90,South,184,6.0,11.0,41,0.00,,,0.00,weatherlink.com 1.10,2013-03-31 19:08:00,
2013-03-31 15:23:00,53.6,30.0,29.89,ESE,117,9.0,19.0,41,0.00,,,0.00,weatherlink.com 1.10,2013-03-31 19:23:00,
2013-03-31 15:38:00,53.8,31.0,29.88,South,175,5.0,19.0,42,0.00,,,0.00,weatherlink.com 1.10,2013-03-31 19:38:00,
2013-03-31 15:53:00,53.9,30.0,29.88,South,169,5.0,24.0,40,0.00,,,0.00,weatherlink.com 1.10,2013-03-31 19:53:00,
2013-03-31 16:08:00,54.0,31.0,29.88,SSW,192,7.0,21.0,42,0.00,,,0.00,weatherlink.com 1.10,2013-03-31 20:08:00,
2013-03-31 16:23:00,53.2,32.0,29.88,NNE,28,6.0,16.0,45,0.00,,,0.00,weatherlink.com 1.10,2013-03-31 20:23:00,
2013-03-31 16:38:00,52.2,33.0,29.87,SE,146,2.0,15.0,48,0.00,,,0.00,weatherlink.com 1.10,2013-03-31 20:38:00,
2013-03-31 16:53:00,51.7,34.0,29.87,SE,134,10.0,20.0,51,0.00,,,0.00,weatherlink.com 1.10,2013-03-31 20:53:00,
2013-03-31 17:08:00,50.9,35.0,29.87,SE,134,7.0,17.0,55,0.00,,,0.00,weatherlink.com 1.10,2013-03-31 21:08:00,
2013-03-31 17:23:00,50.3,35.0,29.86,South,182,7.0,22.0,57,0.00,,,0.00,weatherlink.com 1.10,2013-03-31 21:23:00,
2013-03-31 17:38:00,49.5,36.0,29.86,South,187,11.0,17.0,61,0.00,,,0.00,weatherlink.com 1.10,2013-03-31 21:38:00,
2013-03-31 17:53:00,48.0,37.0,29.87,SSE,157,1.0,22.0,67,0.00,,,0.00,weatherlink.com 1.10,2013-03-31 21:53:00,
2013-03-31 18:08:00,46.2,39.0,29.87,SSE,148,10.0,18.0,75,0.00,,,0.00,weatherlink.com 1.10,2013-03-31 22:08:00,
2013-03-31 18:23:00,45.5,39.0,29.87,SSW,200,8.0,18.0,78,0.00,,,0.00,weatherlink.com 1.10,2013-03-31 22:23:00,
2013-03-31 18:38:00,44.9,40.0,29.87,SSW,192,3.0,16.0,82,0.00,,,0.00,weatherlink.com 1.10,2013-03-31 22:38:00,
2013-03-31 18:53:00,44.2,40.0,29.86,East,95,10.0,19.0,84,0.00,,,0.00,weatherlink.com 1.10,2013-03-31 22:53:00,
2013-03-31 19:08:00,43.7,40.0,29.84,ESE,104,3.0,16.0,86,0.01,,,0.01,weatherlink.com 1.10,2013-03-31 23:08:00,
2013-03-31 19:23:00,43.3,40.0,29.84,South,183,0.0,10.0,87,0.01,,,0.01,weatherlink.com 1.10,2013-03-31 23:23:00,
2013-03-31 19:38:00,43.1,40.0,29.83,South,173,0.0,8.0,87,0.02,,,0.02,weatherlink.com 1.10,2013-03-31 23:38:00,
2013-03-31 19:53:00,42.9,40.0,29.82,South,181,0.0,4.0,88,0.02,,,0.02,weatherlink.com 1.10,2013-03-31 23:53:00,
2013-03-31 20:08:00,42.5,39.0,29.81,SE,138,1.0,6.0,88,0.01,,,0.02,weatherlink.com 1.10,2013-04-01 00:08:00,
2013-03-31 20:23:00,42.4,39.0,29.80,SE,134,1.0,5.0,88,0.01,,,0.02,weatherlink.com 1.10,2013-04-01 00:23:00,
2013-03-31 20:38:00,42.3,39.0,29.79,SE,142,1.0,4.0,88,0.00,,,0.02,weatherlink.com 1.10,2013-04-01 00:38:00,
2013-03-31 20:54:00,42.2,39.0,29.79,SE,136,0.0,6.0,89,0.00,,,0.02,weatherlink.com 1.10,2013-04-01 00:54:00,
2013-03-31 21:08:00,42.1,39.0,29.78,SE,126,0.0,9.0,90,0.00,,,0.02,weatherlink.com 1.10,2013-04-01 01:08:00,
2013-03-31 21:24:00,41.9,40.0,29.78,South,174,0.0,5.0,91,0.01,,,0.03,weatherlink.com 1.10,2013-04-01 01:24:00,
2013-03-31 21:39:00,41.6,40.0,29.77,SE,139,0.0,5.0,92,0.03,,,0.05,weatherlink.com 1.10,2013-04-01 01:39:00,
2013-03-31 21:54:00,41.3,40.0,29.78,SE,129,0.0,2.0,93,0.04,,,0.06,weatherlink.com 1.10,2013-04-01 01:54:00,
2013-03-31 22:09:00,40.9,39.0,29.77,SE,129,0.0,1.0,94,0.05,,,0.07,weatherlink.com 1.10,2013-04-01 02:09:00,
2013-03-31 22:24:00,40.7,39.0,29.76,ESE,107,0.0,2.0,95,0.05,,,0.08,weatherlink.com 1.10,2013-04-01 02:24:00,
2013-03-31 22:39:00,40.7,40.0,29.75,NNE,24,3.0,4.0,96,0.04,,,0.09,weatherlink.com 1.10,2013-04-01 02:39:00,
2013-03-31 22:54:00,40.9,40.0,29.75,ENE,72,0.0,4.0,96,0.03,,,0.09,weatherlink.com 1.10,2013-04-01 02:54:00,
2013-03-31 23:09:00,40.9,40.0,29.74,ENE,71,0.0,4.0,95,0.02,,,0.09,weatherlink.com 1.10,2013-04-01 03:09:00,
2013-03-31 23:24:00,40.9,40.0,29.74,ESE,109,0.0,2.0,96,0.02,,,0.10,weatherlink.com 1.10,2013-04-01 03:24:00,
2013-03-31 23:39:00,40.8,40.0,29.73,East,93,0.0,2.0,96,0.01,,,0.10,weatherlink.com 1.10,2013-04-01 03:39:00,
2013-03-31 23:54:00,40.8,40.0,29.73,ESE,109,1.0,4.0,96,0.01,,,0.10,weatherlink.com 1.10,2013-04-01 03:54:00,